createdAt,value
2023-03-19T00:03:05.750Z,19.50
2023-03-19T00:08:10.825Z,18.77
2023-03-19T00:13:03.948Z,18.30
2023-03-19T00:18:08.651Z,13.33
2023-03-19T00:23:11.519Z,16.90
2023-03-19T00:27:55.479Z,14.33
2023-03-19T00:32:41.163Z,14.00
2023-03-19T00:37:31.787Z,16.80
2023-03-19T00:42:21.301Z,15.10
2023-03-19T00:47:24.074Z,17.00
2023-03-19T00:52:11.280Z,18.13
2023-03-19T00:57:02.252Z,14.37
2023-03-19T01:01:47.595Z,17.27
2023-03-19T01:06:35.712Z,15.57
2023-03-19T01:11:26.228Z,14.93
2023-03-19T01:16:11.000Z,16.03
2023-03-19T01:20:58.749Z,16.87
2023-03-19T01:31:38.415Z,17.17
2023-03-19T01:36:47.118Z,15.20
2023-03-19T01:42:03.724Z,15.33
2023-03-19T01:47:39.267Z,16.80
2023-03-19T01:52:31.807Z,15.13
2023-03-19T01:57:48.450Z,16.63
2023-03-19T02:03:11.791Z,16.87
2023-03-19T02:08:15.846Z,15.77
2023-03-19T02:12:59.696Z,15.60
2023-03-19T02:18:02.120Z,14.40
2023-03-19T02:23:25.925Z,14.77
2023-03-19T02:28:40.137Z,15.97
2023-03-19T02:33:34.086Z,13.60
2023-03-19T02:38:33.978Z,12.60
2023-03-19T02:43:27.300Z,14.07
2023-03-19T02:48:11.366Z,14.10
2023-03-19T02:53:01.758Z,14.73
2023-03-19T02:58:05.924Z,15.67
2023-03-19T03:02:51.321Z,12.77
2023-03-19T03:07:37.700Z,15.93
2023-03-19T03:12:27.347Z,14.10
2023-03-19T03:17:17.103Z,14.07
2023-03-19T03:22:02.064Z,13.03
2023-03-19T03:26:48.862Z,15.43
2023-03-19T03:31:38.139Z,13.17
2023-03-19T03:36:29.232Z,13.27
2023-03-19T03:41:14.284Z,15.40
2023-03-19T03:46:04.095Z,12.50
2023-03-19T03:50:49.744Z,13.67
2023-03-19T03:55:37.960Z,13.87
2023-03-19T04:00:26.587Z,15.70
2023-03-19T04:05:16.363Z,14.10
2023-03-19T04:10:03.067Z,14.67
2023-03-19T04:14:48.607Z,13.73
2023-03-19T04:19:44.123Z,14.50
2023-03-19T04:24:27.906Z,16.17
2023-03-19T04:29:13.385Z,16.00
2023-03-19T04:34:01.908Z,14.00
2023-03-19T04:38:49.774Z,13.30
2023-03-19T04:43:42.788Z,15.10
2023-03-19T04:48:27.559Z,15.77
2023-03-19T04:53:14.980Z,14.00
2023-03-19T04:58:02.260Z,15.27
2023-03-19T05:02:50.714Z,16.03
2023-03-19T05:07:40.725Z,14.67
2023-03-19T05:12:25.990Z,15.70
2023-03-19T05:17:15.613Z,16.50
2023-03-19T05:22:32.096Z,17.67
2023-03-19T05:27:21.389Z,15.27
2023-03-19T05:32:30.404Z,16.03
2023-03-19T05:37:31.955Z,16.73
2023-03-19T05:42:16.986Z,15.83
2023-03-19T05:47:06.040Z,15.97
2023-03-19T05:51:54.133Z,13.57
2023-03-19T05:56:39.827Z,17.70
2023-03-19T06:02:01.913Z,16.43
2023-03-19T06:06:53.529Z,15.03
2023-03-19T06:11:40.602Z,14.70
2023-03-19T06:17:03.047Z,14.13
2023-03-19T06:21:46.872Z,17.30
2023-03-19T06:26:35.290Z,14.40
2023-03-19T06:31:24.142Z,14.50
2023-03-19T06:36:26.234Z,14.20
2023-03-19T06:41:19.212Z,14.50
2023-03-19T06:46:36.091Z,14.93
2023-03-19T06:51:21.592Z,13.60
2023-03-19T06:56:10.309Z,14.87
2023-03-19T07:00:57.230Z,13.97
2023-03-19T07:05:52.342Z,15.37
2023-03-19T07:10:36.356Z,14.13
2023-03-19T07:15:22.482Z,14.10
2023-03-19T07:20:12.929Z,14.43
2023-03-19T07:24:58.111Z,14.17
2023-03-19T07:29:46.483Z,14.27
2023-03-19T07:34:36.001Z,16.77
2023-03-19T07:39:21.573Z,14.30
2023-03-19T07:44:13.825Z,15.30
2023-03-19T07:48:57.212Z,13.93
2023-03-19T07:53:45.778Z,11.97
2023-03-19T07:58:33.069Z,13.53
2023-03-19T08:03:25.813Z,12.17
2023-03-19T08:08:09.675Z,10.80
2023-03-19T08:12:56.730Z,12.23
2023-03-19T08:17:46.015Z,12.83
2023-03-19T08:22:34.290Z,11.30
2023-03-19T08:27:22.298Z,11.97
2023-03-19T08:32:14.909Z,10.43
2023-03-19T08:36:58.382Z,11.87
2023-03-19T08:42:04.647Z,12.40
2023-03-19T08:46:49.103Z,10.13
2023-03-19T08:51:39.206Z,11.73
2023-03-19T08:56:28.887Z,11.67
2023-03-19T09:01:16.865Z,9.83
2023-03-19T09:06:01.651Z,9.70
2023-03-19T09:10:51.344Z,10.07
2023-03-19T09:15:38.071Z,11.23
2023-03-19T09:20:25.442Z,10.27
2023-03-19T09:25:12.619Z,8.87
2023-03-19T09:30:02.165Z,8.97
2023-03-19T09:34:52.945Z,12.47
2023-03-19T09:39:37.994Z,9.33
2023-03-19T09:44:28.042Z,9.33
2023-03-19T09:49:18.478Z,12.33
2023-03-19T09:54:04.462Z,12.67
2023-03-19T09:58:49.681Z,9.30
2023-03-19T10:03:44.610Z,11.40
2023-03-19T10:08:42.836Z,10.80
2023-03-19T10:13:44.518Z,10.73
2023-03-19T10:18:36.089Z,10.27
2023-03-19T10:23:37.005Z,11.80
2023-03-19T10:28:28.827Z,10.03
2023-03-19T10:33:26.511Z,11.43
2023-03-19T10:38:19.978Z,11.63
2023-03-19T10:43:19.434Z,11.50
2023-03-19T10:48:15.496Z,9.87
2023-03-19T10:53:11.744Z,9.13
2023-03-19T10:58:05.779Z,11.13
2023-03-19T11:02:52.690Z,11.63
2023-03-19T11:07:44.627Z,9.83
2023-03-19T11:12:41.646Z,10.93
2023-03-19T11:18:00.754Z,11.33
2023-03-19T11:22:54.098Z,11.13
2023-03-19T11:27:37.790Z,11.50
2023-03-19T11:32:59.384Z,11.30
2023-03-19T11:38:01.007Z,11.40
2023-03-19T11:43:09.125Z,10.10
2023-03-19T11:48:00.742Z,10.60
2023-03-19T11:53:04.199Z,13.07
2023-03-19T11:58:31.817Z,9.97
2023-03-19T12:03:53.498Z,13.47
2023-03-19T12:08:45.025Z,10.50
2023-03-19T12:13:44.947Z,11.80
2023-03-19T12:19:05.145Z,11.20
2023-03-19T12:24:14.398Z,11.27
2023-03-19T12:29:14.971Z,13.57
2023-03-19T12:34:17.649Z,10.70
2023-03-19T12:39:12.481Z,11.80
2023-03-19T12:43:59.840Z,10.47
2023-03-19T12:48:56.417Z,10.27
2023-03-19T12:53:51.344Z,11.03
2023-03-19T12:58:49.894Z,11.70
2023-03-19T13:03:44.677Z,11.20
2023-03-19T13:08:46.567Z,11.87
2023-03-19T13:13:50.248Z,10.00
2023-03-19T13:18:39.612Z,9.27
2023-03-19T13:23:30.801Z,12.43
2023-03-19T13:28:31.260Z,10.60
2023-03-19T13:33:27.577Z,11.77
2023-03-19T13:38:22.146Z,11.30
2023-03-19T13:43:09.221Z,12.70
2023-03-19T13:48:41.287Z,13.27
2023-03-19T13:53:45.026Z,12.50
2023-03-19T13:58:52.687Z,14.60
2023-03-19T14:03:54.343Z,11.57
2023-03-19T14:08:54.659Z,10.47
2023-03-19T14:13:50.484Z,11.97
2023-03-19T14:18:40.356Z,13.83
2023-03-19T14:23:39.569Z,12.70
2023-03-19T14:28:42.386Z,12.10
2023-03-19T14:33:36.292Z,11.73
2023-03-19T14:38:48.439Z,10.07
2023-03-19T14:44:09.675Z,13.23
2023-03-19T14:49:49.518Z,9.53
2023-03-19T14:55:04.749Z,10.77
2023-03-19T14:59:57.910Z,8.63
2023-03-19T15:04:48.573Z,5.87
2023-03-19T15:10:20.977Z,6.50
2023-03-19T15:15:37.167Z,5.87
2023-03-19T15:20:42.333Z,3.90
2023-03-19T15:25:46.352Z,2.10
2023-03-19T15:31:33.550Z,2.50
2023-03-19T15:36:44.014Z,2.60
2023-03-19T15:41:44.097Z,3.40
2023-03-19T15:46:34.661Z,2.73
2023-03-19T15:51:40.923Z,3.20
2023-03-19T15:56:26.442Z,3.47
2023-03-19T16:01:16.728Z,4.23
2023-03-19T16:06:06.111Z,3.53
2023-03-19T16:10:50.235Z,3.43
2023-03-19T16:15:55.110Z,3.27
2023-03-19T16:21:04.206Z,4.97
2023-03-19T16:25:48.314Z,3.77
2023-03-19T16:30:33.906Z,3.37
2023-03-19T16:35:21.823Z,3.67
2023-03-19T16:41:10.374Z,4.13
2023-03-19T16:46:06.658Z,2.33
2023-03-19T16:50:52.246Z,2.13
2023-03-19T16:55:38.795Z,2.50
2023-03-19T17:01:01.428Z,3.93
2023-03-19T17:05:50.336Z,2.93
2023-03-19T17:10:34.656Z,3.03
2023-03-19T17:15:34.766Z,3.13
2023-03-19T17:20:42.377Z,4.40
2023-03-19T17:25:31.214Z,4.30
2023-03-19T17:30:19.306Z,5.33
2023-03-19T17:35:24.852Z,4.43
2023-03-19T17:40:27.440Z,4.43
2023-03-19T17:45:17.332Z,3.57
2023-03-19T17:50:08.169Z,2.73
2023-03-19T18:00:10.610Z,2.80
2023-03-19T18:05:00.342Z,4.47
2023-03-19T18:09:47.207Z,3.27
2023-03-19T18:14:34.817Z,3.23
2023-03-19T18:19:26.734Z,3.67
2023-03-19T18:24:12.938Z,3.50
2023-03-19T18:28:57.620Z,3.20
2023-03-19T18:33:49.778Z,3.17
2023-03-19T18:38:33.484Z,4.53
2023-03-19T18:43:22.904Z,4.10
2023-03-19T18:48:40.862Z,2.97
2023-03-19T18:53:49.821Z,3.53
2023-03-19T18:59:35.608Z,4.10
2023-03-19T19:04:29.921Z,3.77
2023-03-19T19:09:35.589Z,3.20
2023-03-19T19:14:22.893Z,5.97
2023-03-19T19:19:41.339Z,3.70
2023-03-19T19:24:46.142Z,3.40
2023-03-19T19:29:31.322Z,4.70
2023-03-19T19:34:19.374Z,5.00
2023-03-19T19:39:09.591Z,4.63
2023-03-19T19:43:57.514Z,3.63
2023-03-19T19:48:41.558Z,3.30
2023-03-19T19:53:36.396Z,3.20
2023-03-19T19:58:22.686Z,3.10
2023-03-19T20:03:08.039Z,3.90
2023-03-19T20:13:33.660Z,4.33
2023-03-19T20:18:33.440Z,3.40
2023-03-19T20:23:23.538Z,3.93
2023-03-19T20:29:16.418Z,3.13
2023-03-19T20:33:31.651Z,3.50
2023-03-19T20:38:19.511Z,4.07
2023-03-19T20:43:11.813Z,4.33
2023-03-19T20:47:57.406Z,4.00
2023-03-19T20:52:46.456Z,5.43
2023-03-19T20:57:47.667Z,4.77
2023-03-19T21:02:49.148Z,3.07
2023-03-19T21:07:59.904Z,3.53
2023-03-19T21:13:00.142Z,3.87
2023-03-19T21:17:47.033Z,4.03
2023-03-19T21:22:34.246Z,4.50
2023-03-19T21:27:27.179Z,4.53
2023-03-19T21:32:23.127Z,3.83
2023-03-19T21:37:34.356Z,4.47
2023-03-19T21:42:20.317Z,3.73
2023-03-19T21:47:21.952Z,5.47
2023-03-19T21:52:14.406Z,3.70
2023-03-19T21:57:04.643Z,4.27
2023-03-19T22:02:33.379Z,3.23
2023-03-19T22:07:26.430Z,3.90
2023-03-19T22:12:27.402Z,3.47
2023-03-19T22:17:16.265Z,4.63
2023-03-19T22:22:03.166Z,4.50
2023-03-19T22:27:07.684Z,4.50
2023-03-19T22:31:57.317Z,3.53
2023-03-19T22:36:42.839Z,4.33
2023-03-19T22:41:36.628Z,3.57
2023-03-19T22:46:34.257Z,3.57
2023-03-19T22:51:24.614Z,3.20
2023-03-19T22:56:14.254Z,3.47
2023-03-19T23:00:58.357Z,3.63
2023-03-19T23:06:02.718Z,4.03
2023-03-19T23:10:51.227Z,3.63
2023-03-19T23:15:39.806Z,3.10
2023-03-19T23:20:30.353Z,3.57
2023-03-19T23:25:15.992Z,3.80
2023-03-19T23:30:01.918Z,3.20
2023-03-19T23:34:59.559Z,4.63
2023-03-19T23:39:56.402Z,3.77
2023-03-19T23:44:45.038Z,3.50
2023-03-19T23:49:33.687Z,3.47
2023-03-19T23:54:34.989Z,3.27
2023-03-19T23:59:24.431Z,3.73
